Time,TemperatureF,DewpointF,PressureIn,WindDirection,WindDirectionDegrees,WindSpeedMPH,WindSpeedGustMPH,Humidity,HourlyPrecipIn,Conditions,Clouds,dailyrainin,SolarRadiationWatts/m^2,SoftwareType,DateUTC
2013-01-10 00:00:00,37.7,25.1,29.79,SSE,157,13.0,27.0,60,0.00,,OVC075,0.00,0.00,VWS V14.01,2013-01-10 07:00:00,
2013-01-10 00:03:00,38.1,25.1,29.76,South,183,18.0,21.0,59,0.00,,CLR,0.00,0.00,VWS V14.01,2013-01-10 07:03:00,
2013-01-10 00:08:00,39.7,25.7,29.75,SSE,161,14.0,21.0,57,0.00,,CLR,0.00,0.00,VWS V14.01,2013-01-10 07:08:00,
2013-01-10 00:13:00,39.4,25.5,29.75,South,188,16.0,21.0,57,0.00,,CLR,0.00,0.00,VWS V14.01,2013-01-10 07:13:00,
2013-01-10 00:18:00,38.9,25.0,29.75,SSE,165,10.0,22.0,57,0.00,,CLR,0.00,0.00,VWS V14.01,2013-01-10 07:18:00,
2013-01-10 00:23:00,37.4,24.8,29.75,South,180,14.0,22.0,60,0.00,,CLR,0.00,0.00,VWS V14.01,2013-01-10 07:23:00,
2013-01-10 00:28:00,37.2,25.0,29.75,SSE,165,13.0,22.0,61,0.00,,CLR,0.00,0.00,VWS V14.01,2013-01-10 07:28:00,
2013-01-10 00:30:00,37.3,26.6,29.75,SSE,165,18.0,22.0,65,0.00,,OVC075,0.00,0.00,VWS V14.01,2013-01-10 07:30:00,
2013-01-10 00:33:00,37.0,24.8,29.75,SSW,194,13.0,18.0,61,0.00,,CLR,0.00,0.00,VWS V14.01,2013-01-10 07:33:00,
2013-01-10 00:38:00,37.1,24.9,29.75,SSW,196,14.0,19.0,61,0.00,,CLR,0.00,0.00,VWS V14.01,2013-01-10 07:38:00,
2013-01-10 00:43:00,36.1,24.7,29.75,SSE,166,12.0,19.0,63,0.00,,CLR,0.00,0.00,VWS V14.01,2013-01-10 07:43:00,
2013-01-10 00:48:00,36.5,25.1,29.75,SSW,200,9.0,19.0,63,0.00,,CLR,0.00,0.00,VWS V14.01,2013-01-10 07:48:00,
2013-01-10 00:53:00,35.8,25.2,29.75,SSE,155,12.0,23.0,65,0.00,,CLR,0.00,0.00,VWS V14.01,2013-01-10 07:53:00,
2013-01-10 00:58:00,36.3,25.3,29.75,SE,144,12.0,23.0,64,0.00,,CLR,0.00,0.00,VWS V14.01,2013-01-10 07:58:00,
2013-01-10 01:00:00,36.4,25.4,29.75,SSE,154,11.0,23.0,64,0.00,,OVC075,0.00,0.00,VWS V14.01,2013-01-10 08:00:00,
2013-01-10 01:03:00,36.4,25.4,29.75,South,181,15.0,17.0,64,0.00,,CLR,0.00,0.00,VWS V14.01,2013-01-10 08:03:00,
2013-01-10 01:08:00,36.6,25.6,29.74,SSE,167,13.0,18.0,64,0.00,,CLR,0.00,0.00,VWS V14.01,2013-01-10 08:08:00,
2013-01-10 01:13:00,37.1,25.7,29.74,South,183,9.0,18.0,63,0.00,,CLR,0.00,0.00,VWS V14.01,2013-01-10 08:13:00,
2013-01-10 01:18:00,37.2,25.4,29.75,SSE,163,3.0,18.0,62,0.00,,CLR,0.00,0.00,VWS V14.01,2013-01-10 08:18:00,
2013-01-10 01:23:00,37.0,25.6,29.74,South,177,5.0,18.0,63,0.00,,CLR,0.00,0.00,VWS V14.01,2013-01-10 08:23:00,
2013-01-10 01:28:00,37.1,25.7,29.73,SSW,213,15.0,20.0,63,0.00,,CLR,0.00,0.00,VWS V14.01,2013-01-10 08:28:00,
2013-01-10 01:30:00,37.1,25.7,29.73,South,175,12.0,20.0,63,0.00,,OVC075,0.00,0.00,VWS V14.01,2013-01-10 08:30:00,
2013-01-10 01:33:00,37.1,25.7,29.73,South,173,13.0,19.0,63,0.00,,CLR,0.00,0.00,VWS V14.01,2013-01-10 08:33:00,
2013-01-10 01:38:00,38.0,26.1,29.73,SSW,192,16.0,24.0,62,0.00,,CLR,0.00,0.00,VWS V14.01,2013-01-10 08:38:00,
2013-01-10 01:43:00,37.7,25.9,29.73,SSE,165,18.0,25.0,62,0.00,,CLR,0.00,0.00,VWS V14.01,2013-01-10 08:43:00,
2013-01-10 01:48:00,37.4,26.0,29.73,South,176,18.0,27.0,63,0.00,,CLR,0.00,0.00,VWS V14.01,2013-01-10 08:48:00,
2013-01-10 01:54:00,37.0,26.0,29.74,South,190,15.0,27.0,64,0.00,,CLR,0.00,0.00,VWS V14.01,2013-01-10 08:54:00,
2013-01-10 01:58:00,36.8,25.8,29.74,SSW,200,14.0,27.0,64,0.00,,CLR,0.00,0.00,VWS V14.01,2013-01-10 08:58:00,
2013-01-10 02:00:00,36.7,26.1,29.74,SSE,163,14.0,27.0,65,0.00,,OVC075,0.00,0.00,VWS V14.01,2013-01-10 09:00:00,
2013-01-10 02:04:00,36.5,25.9,29.73,South,179,20.0,25.0,65,0.00,,CLR,0.00,0.00,VWS V14.01,2013-01-10 09:04:00,
2013-01-10 02:09:00,36.7,26.1,29.73,South,182,12.0,25.0,65,0.00,,CLR,0.00,0.00,VWS V14.01,2013-01-10 09:09:00,
2013-01-10 02:14:00,36.6,26.0,29.73,SSW,197,19.0,26.0,65,0.00,,CLR,0.00,0.00,VWS V14.01,2013-01-10 09:14:00,
2013-01-10 02:19:00,36.7,26.1,29.73,South,188,21.0,26.0,65,0.00,,CLR,0.00,0.00,VWS V14.01,2013-01-10 09:19:00,
2013-01-10 02:24:00,36.8,26.1,29.73,SW,215,16.0,26.0,65,0.00,,CLR,0.00,0.00,VWS V14.01,2013-01-10 09:24:00,
2013-01-10 02:29:00,36.7,26.1,29.73,South,173,19.0,26.0,65,0.00,,CLR,0.00,0.00,VWS V14.01,2013-01-10 09:29:00,
2013-01-10 02:30:00,36.8,26.1,29.73,South,184,14.0,26.0,65,0.00,,OVC075,0.00,0.00,VWS V14.01,2013-01-10 09:30:00,
2013-01-10 02:34:00,37.0,26.3,29.73,SSW,192,16.0,23.0,65,0.00,,CLR,0.00,0.00,VWS V14.01,2013-01-10 09:34:00,
2013-01-10 02:39:00,37.1,26.4,29.73,South,185,14.0,27.0,65,0.00,,CLR,0.00,0.00,VWS V14.01,2013-01-10 09:39:00,
2013-01-10 02:44:00,37.0,26.3,29.73,SSW,195,12.0,27.0,65,0.00,,CLR,0.00,0.00,VWS V14.01,2013-01-10 09:44:00,
2013-01-10 02:49:00,36.8,26.5,29.73,South,189,13.0,27.0,66,0.00,,CLR,0.00,0.00,VWS V14.01,2013-01-10 09:49:00,
2013-01-10 02:54:00,37.0,26.3,29.73,South,171,12.0,27.0,65,0.00,,CLR,0.00,0.00,VWS V14.01,2013-01-10 09:54:00,
2013-01-10 02:59:00,36.9,26.2,29.73,South,190,10.0,27.0,65,0.00,,CLR,0.00,0.00,VWS V14.01,2013-01-10 09:59:00,
2013-01-10 03:00:00,36.8,26.1,29.73,South,187,12.0,27.0,65,0.00,,OVC075,0.00,0.00,VWS V14.01,2013-01-10 10:00:00,
2013-01-10 03:04:00,37.1,26.4,29.73,South,186,21.0,23.0,65,0.00,,CLR,0.00,0.00,VWS V14.01,2013-01-10 10:04:00,
2013-01-10 03:09:00,37.3,26.3,29.73,South,183,12.0,23.0,64,0.00,,CLR,0.00,0.00,VWS V14.01,2013-01-10 10:09:00,
2013-01-10 03:14:00,37.3,26.3,29.73,SSW,200,11.0,23.0,64,0.00,,CLR,0.00,0.00,VWS V14.01,2013-01-10 10:14:00,
2013-01-10 03:19:00,37.2,26.2,29.72,South,177,12.0,23.0,64,0.00,,CLR,0.00,0.00,VWS V14.01,2013-01-10 10:19:00,
2013-01-10 03:24:00,37.4,26.0,29.71,South,169,14.0,23.0,63,0.00,,CLR,0.00,0.00,VWS V14.01,2013-01-10 10:24:00,
2013-01-10 03:29:00,37.1,26.1,29.71,SE,146,14.0,23.0,64,0.00,,CLR,0.00,0.00,VWS V14.01,2013-01-10 10:29:00,
2013-01-10 03:30:00,37.0,26.0,29.71,SE,141,15.0,23.0,64,0.00,,OVC075,0.00,0.00,VWS V14.01,2013-01-10 10:30:00,
2013-01-10 03:34:00,36.9,25.9,29.71,SSW,196,17.0,24.0,64,0.00,,CLR,0.00,0.00,VWS V14.01,2013-01-10 10:34:00,
2013-01-10 03:39:00,36.7,25.7,29.71,South,186,23.0,24.0,64,0.00,,CLR,0.00,0.00,VWS V14.01,2013-01-10 10:39:00,
2013-01-10 03:44:00,37.0,26.0,29.70,South,188,17.0,24.0,64,0.00,,CLR,0.00,0.00,VWS V14.01,2013-01-10 10:44:00,
2013-01-10 03:49:00,37.1,25.7,29.70,South,178,13.0,25.0,63,0.00,,CLR,0.00,0.00,VWS V14.01,2013-01-10 10:49:00,
2013-01-10 03:54:00,37.0,25.6,29.69,South,176,18.0,25.0,63,0.00,,CLR,0.00,0.00,VWS V14.01,2013-01-10 10:54:00,
2013-01-10 03:59:00,36.7,25.7,29.69,SSE,168,19.0,25.0,64,0.00,,CLR,0.00,0.00,VWS V14.01,2013-01-10 10:59:00,
2013-01-10 04:00:00,36.8,25.8,29.69,SSE,167,15.0,25.0,64,0.00,,OVC075,0.00,0.00,VWS V14.01,2013-01-10 11:00:00,
2013-01-10 04:04:00,36.7,25.7,29.70,SSE,157,17.0,28.0,64,0.00,,CLR,0.00,0.00,VWS V14.01,2013-01-10 11:04:00,
2013-01-10 04:09:00,36.8,25.8,29.69,SSE,161,18.0,28.0,64,0.00,,CLR,0.00,0.00,VWS V14.01,2013-01-10 11:09:00,
2013-01-10 04:14:00,36.9,25.5,29.69,South,191,25.0,28.0,63,0.00,,CLR,0.00,0.00,VWS V14.01,2013-01-10 11:14:00,
2013-01-10 04:19:00,36.9,25.5,29.69,South,182,16.0,28.0,63,0.00,,CLR,0.00,0.00,VWS V14.01,2013-01-10 11:19:00,
2013-01-10 04:24:00,37.2,25.4,29.69,South,183,21.0,28.0,62,0.00,,CLR,0.00,0.00,VWS V14.01,2013-01-10 11:24:00,
2013-01-10 04:29:00,37.0,25.2,29.69,South,181,12.0,28.0,62,0.00,,CLR,0.00,0.00,VWS V14.01,2013-01-10 11:29:00,
2013-01-10 04:30:00,37.0,25.6,29.69,SSW,193,14.0,28.0,63,0.00,,OVC075,0.00,0.00,VWS V14.01,2013-01-10 11:30:00,
2013-01-10 04:34:00,37.0,25.6,29.69,SSW,198,20.0,24.0,63,0.00,,CLR,0.00,0.00,VWS V14.01,2013-01-10 11:34:00,
2013-01-10 04:39:00,37.0,25.2,29.68,SSW,200,17.0,24.0,62,0.00,,CLR,0.00,0.00,VWS V14.01,2013-01-10 11:39:00,
2013-01-10 04:44:00,36.9,25.5,29.68,SSW,194,21.0,25.0,63,0.00,,CLR,0.00,0.00,VWS V14.01,2013-01-10 11:44:00,
2013-01-10 04:49:00,37.1,25.7,29.68,South,171,14.0,25.0,63,0.00,,CLR,0.00,0.00,VWS V14.01,2013-01-10 11:49:00,
2013-01-10 04:54:00,37.2,25.4,29.68,South,169,19.0,25.0,62,0.00,,CLR,0.00,0.00,VWS V14.01,2013-01-10 11:54:00,
2013-01-10 04:59:00,37.4,25.6,29.67,South,190,21.0,29.0,62,0.00,,CLR,0.00,0.00,VWS V14.01,2013-01-10 11:59:00,
2013-01-10 05:00:00,37.5,25.3,29.67,SSE,159,30.0,30.0,61,0.00,,OVC075,0.00,0.00,VWS V14.01,2013-01-10 12:00:00,
2013-01-10 05:04:00,37.4,25.2,29.69,South,179,18.0,30.0,61,0.00,,CLR,0.00,0.00,VWS V14.01,2013-01-10 12:04:00,
2013-01-10 05:09:00,37.4,25.2,29.69,SSW,205,25.0,36.0,61,0.00,,CLR,0.00,0.00,VWS V14.01,2013-01-10 12:09:00,
2013-01-10 05:14:00,37.0,24.8,29.69,SSE,159,22.0,36.0,61,0.00,,CLR,0.00,0.00,VWS V14.01,2013-01-10 12:14:00,
2013-01-10 05:19:00,36.7,24.9,29.69,SSW,195,20.0,36.0,62,0.00,,CLR,0.00,0.00,VWS V14.01,2013-01-10 12:19:00,
2013-01-10 05:24:00,36.5,24.7,29.69,SSW,210,10.0,36.0,62,0.00,,CLR,0.00,0.00,VWS V14.01,2013-01-10 12:24:00,
2013-01-10 05:29:00,36.4,25.0,29.68,SSW,206,19.0,36.0,63,0.00,,CLR,0.00,0.00,VWS V14.01,2013-01-10 12:29:00,
2013-01-10 05:30:00,36.6,24.8,29.68,South,169,19.0,36.0,62,0.00,,OVC075,0.00,0.00,VWS V14.01,2013-01-10 12:30:00,
2013-01-10 05:34:00,36.5,24.7,29.68,South,191,21.0,29.0,62,0.00,,CLR,0.00,0.00,VWS V14.01,2013-01-10 12:34:00,
2013-01-10 05:39:00,36.2,24.8,29.68,SSE,168,18.0,29.0,63,0.00,,CLR,0.00,0.00,VWS V14.01,2013-01-10 12:39:00,
2013-01-10 05:44:00,37.7,25.1,29.67,SSW,192,18.0,29.0,60,0.00,,CLR,0.00,0.00,VWS V14.01,2013-01-10 12:44:00,
2013-01-10 05:49:00,37.3,24.7,29.67,SSW,193,23.0,32.0,60,0.00,,CLR,0.00,0.00,VWS V14.01,2013-01-10 12:49:00,
2013-01-10 05:54:00,36.8,24.6,29.67,South,176,16.0,32.0,61,0.00,,CLR,0.00,0.00,VWS V14.01,2013-01-10 12:54:00,
2013-01-10 05:59:00,36.3,24.5,29.67,SSW,199,18.0,32.0,62,0.00,,CLR,0.00,0.00,VWS V14.01,2013-01-10 12:59:00,
2013-01-10 06:00:00,36.4,24.6,29.67,SSW,200,18.0,32.0,62,0.00,,OVC075,0.00,0.00,VWS V14.01,2013-01-10 13:00:00,
2013-01-10 06:04:00,36.4,24.6,29.67,SSE,159,13.0,23.0,62,0.00,,CLR,0.00,0.00,VWS V14.01,2013-01-10 13:04:00,
2013-01-10 06:09:00,36.6,24.4,29.67,SSE,157,18.0,27.0,61,0.00,,CLR,0.00,0.00,VWS V14.01,2013-01-10 13:09:00,
2013-01-10 06:14:00,36.6,24.4,29.67,South,169,16.0,27.0,61,0.00,,CLR,0.00,0.00,VWS V14.01,2013-01-10 13:14:00,
2013-01-10 06:19:00,36.3,24.5,29.67,SSE,167,18.0,27.0,62,0.00,,CLR,0.00,0.00,VWS V14.01,2013-01-10 13:19:00,
2013-01-10 06:24:00,36.0,24.3,29.67,SSE,160,19.0,27.0,62,0.00,,CLR,0.00,0.00,VWS V14.01,2013-01-10 13:24:00,
2013-01-10 06:29:00,36.5,24.7,29.66,South,173,19.0,27.0,62,0.00,,CLR,0.00,0.00,VWS V14.01,2013-01-10 13:29:00,
2013-01-10 06:30:00,36.6,24.8,29.66,SSE,167,15.0,27.0,62,0.00,,OVC075,0.00,0.00,VWS V14.01,2013-01-10 13:30:00,
2013-01-10 06:34:00,37.1,24.9,29.66,SSW,195,17.0,25.0,61,0.00,,CLR,0.00,0.00,VWS V14.01,2013-01-10 13:34:00,
2013-01-10 06:39:00,37.4,24.8,29.65,South,178,16.0,26.0,60,0.00,,CLR,0.00,0.00,VWS V14.01,2013-01-10 13:39:00,
2013-01-10 06:44:00,37.4,24.8,29.65,SSE,163,14.0,26.0,60,0.00,,CLR,0.00,0.00,VWS V14.01,2013-01-10 13:44:00,
2013-01-10 06:49:00,37.9,24.9,29.64,South,171,22.0,33.0,59,0.00,,CLR,0.00,0.00,VWS V14.01,2013-01-10 13:49:00,
2013-01-10 06:54:00,37.6,24.6,29.64,South,181,21.0,33.0,59,0.00,,CLR,0.00,0.00,VWS V14.01,2013-01-10 13:54:00,
2013-01-10 06:59:00,37.4,24.4,29.65,South,180,19.0,33.0,59,0.00,,CLR,0.00,0.00,VWS V14.01,2013-01-10 13:59:00,
2013-01-10 07:00:00,37.4,24.4,29.65,South,188,23.0,33.0,59,0.00,,OVC075,0.00,0.00,VWS V14.01,2013-01-10 14:00:00,
2013-01-10 07:04:00,37.4,24.4,29.65,South,180,18.0,31.0,59,0.00,,CLR,0.00,0.00,VWS V14.01,2013-01-10 14:04:00,
2013-01-10 07:09:00,37.6,24.6,29.65,South,188,22.0,31.0,59,0.00,,CLR,0.00,0.00,VWS V14.01,2013-01-10 14:09:00,
2013-01-10 07:14:00,37.7,24.7,29.66,SSE,151,25.0,31.0,59,0.00,,CLR,0.00,0.00,VWS V14.01,2013-01-10 14:14:00,
2013-01-10 07:19:00,37.5,24.5,29.66,South,179,23.0,31.0,59,0.00,,CLR,0.00,0.00,VWS V14.01,2013-01-10 14:19:00,
2013-01-10 07:24:00,37.6,24.6,29.66,South,187,19.0,31.0,59,0.00,,CLR,0.00,11.00,VWS V14.01,2013-01-10 14:24:00,
2013-01-10 07:29:00,37.6,24.6,29.65,SSE,164,25.0,31.0,59,0.00,,CLR,0.00,9.00,VWS V14.01,2013-01-10 14:29:00,
2013-01-10 07:30:00,37.7,24.7,29.65,SSE,163,19.0,31.0,59,0.00,,OVC075,0.00,9.00,VWS V14.01,2013-01-10 14:30:00,
2013-01-10 07:34:00,37.6,24.6,29.65,SSE,161,16.0,26.0,59,0.00,,CLR,0.00,14.00,VWS V14.01,2013-01-10 14:34:00,
2013-01-10 07:39:00,37.5,24.5,29.65,SSE,165,18.0,26.0,59,0.00,,CLR,0.00,28.00,VWS V14.01,2013-01-10 14:39:00,
2013-01-10 07:44:00,37.4,24.4,29.65,SSE,161,19.0,26.0,59,0.00,,CLR,0.00,39.00,VWS V14.01,2013-01-10 14:44:00,
2013-01-10 07:49:00,37.7,24.7,29.65,South,174,18.0,26.0,59,0.00,,CLR,0.00,51.00,VWS V14.01,2013-01-10 14:49:00,
2013-01-10 07:54:00,37.9,24.5,29.65,SSE,159,21.0,26.0,58,0.00,,CLR,0.00,63.00,VWS V14.01,2013-01-10 14:54:00,
2013-01-10 07:59:00,38.3,24.8,29.64,South,175,17.0,27.0,58,0.00,,CLR,0.00,70.00,VWS V14.01,2013-01-10 14:59:00,
2013-01-10 08:00:00,38.4,24.9,29.64,South,172,20.0,30.0,58,0.00,,OVC075,0.00,56.00,VWS V14.01,2013-01-10 15:00:00,
2013-01-10 08:04:00,38.5,24.6,29.63,SSE,167,16.0,26.0,57,0.00,,CLR,0.00,81.00,VWS V14.01,2013-01-10 15:04:00,
2013-01-10 08:09:00,38.8,24.9,29.63,South,187,22.0,28.0,57,0.00,,CLR,0.00,63.00,VWS V14.01,2013-01-10 15:09:00,
2013-01-10 08:14:00,38.9,25.0,29.63,SSE,166,16.0,29.0,57,0.00,,CLR,0.00,56.00,VWS V14.01,2013-01-10 15:14:00,
2013-01-10 08:19:00,39.2,24.8,29.63,SSE,152,14.0,31.0,56,0.00,,CLR,0.00,81.00,VWS V14.01,2013-01-10 15:19:00,
2013-01-10 08:24:00,39.3,24.9,29.62,SSE,162,17.0,31.0,56,0.00,,CLR,0.00,141.00,VWS V14.01,2013-01-10 15:24:00,
2013-01-10 08:29:00,39.4,25.0,29.63,SSE,161,17.0,31.0,56,0.00,,CLR,0.00,120.00,VWS V14.01,2013-01-10 15:29:00,
2013-01-10 08:30:00,39.4,25.0,29.63,South,171,18.0,31.0,56,0.00,,OVC075,0.00,120.00,VWS V14.01,2013-01-10 15:30:00,
2013-01-10 08:35:00,39.5,24.7,29.62,South,182,22.0,29.0,55,0.00,,CLR,0.00,227.00,VWS V14.01,2013-01-10 15:35:00,
2013-01-10 08:40:00,40.0,25.1,29.61,South,188,20.0,29.0,55,0.00,,CLR,0.00,213.00,VWS V14.01,2013-01-10 15:40:00,
2013-01-10 08:45:00,40.2,25.3,29.61,SE,145,16.0,33.0,55,0.00,,CLR,0.00,165.00,VWS V14.01,2013-01-10 15:45:00,
2013-01-10 08:50:00,40.5,25.2,29.61,SSE,167,24.0,33.0,54,0.00,,CLR,0.00,118.00,VWS V14.01,2013-01-10 15:50:00,
2013-01-10 08:55:00,40.9,25.1,29.61,SSE,164,26.0,33.0,53,0.00,,CLR,0.00,121.00,VWS V14.01,2013-01-10 15:55:00,
2013-01-10 09:00:00,41.2,25.4,29.61,South,169,21.0,34.0,53,0.00,,CLR,0.00,116.00,VWS V14.01,2013-01-10 16:00:00,
2013-01-10 09:05:00,41.4,25.1,29.60,South,178,19.0,35.0,52,0.00,,BKN150,0.00,120.00,VWS V14.01,2013-01-10 16:05:00,
2013-01-10 09:10:00,41.3,25.0,29.60,SW,214,29.0,35.0,52,0.00,,BKN150,0.00,121.00,VWS V14.01,2013-01-10 16:10:00,
2013-01-10 09:15:00,41.0,25.2,29.60,South,183,25.0,35.0,53,0.00,,BKN150,0.00,135.00,VWS V14.01,2013-01-10 16:15:00,
2013-01-10 09:20:00,41.1,25.3,29.59,SSW,206,25.0,35.0,53,0.00,,BKN150,0.00,160.00,VWS V14.01,2013-01-10 16:20:00,
2013-01-10 09:25:00,41.3,25.0,29.59,South,189,19.0,35.0,52,0.00,,BKN150,0.00,169.00,VWS V14.01,2013-01-10 16:25:00,
2013-01-10 09:30:00,41.6,26.6,29.58,South,190,22.0,35.0,55,0.00,,BKN150,0.00,190.00,VWS V14.01,2013-01-10 16:30:00,
2013-01-10 09:35:00,42.2,25.4,29.58,SSW,195,24.0,34.0,51,0.00,,BKN150,0.00,195.00,VWS V14.01,2013-01-10 16:35:00,
2013-01-10 09:40:00,42.5,25.7,29.58,SSW,202,14.0,34.0,51,0.00,,BKN150,0.00,178.00,VWS V14.01,2013-01-10 16:40:00,
2013-01-10 09:45:00,42.7,25.4,29.59,South,187,25.0,34.0,50,0.00,,BKN150,0.00,181.00,VWS V14.01,2013-01-10 16:45:00,
2013-01-10 09:50:00,42.8,25.5,29.59,SSW,195,28.0,34.0,50,0.00,,BKN150,0.00,178.00,VWS V14.01,2013-01-10 16:50:00,
2013-01-10 09:55:00,43.0,25.6,29.58,South,171,20.0,34.0,50,0.00,,BKN150,0.00,178.00,VWS V14.01,2013-01-10 16:55:00,
2013-01-10 10:00:00,43.4,25.5,29.58,South,169,23.0,34.0,49,0.00,,BKN150,0.00,176.00,VWS V14.01,2013-01-10 17:00:00,
2013-01-10 10:05:00,43.7,25.8,29.57,South,187,16.0,26.0,49,0.00,,BKN150,0.00,188.00,VWS V14.01,2013-01-10 17:05:00,
2013-01-10 10:10:00,43.7,25.8,29.57,SSE,162,24.0,26.0,49,0.00,,BKN150,0.00,195.00,VWS V14.01,2013-01-10 17:10:00,
2013-01-10 10:15:00,43.5,25.6,29.57,SSW,193,19.0,28.0,49,0.00,,BKN150,0.00,186.00,VWS V14.01,2013-01-10 17:15:00,
2013-01-10 10:20:00,43.7,25.8,29.57,SSW,205,22.0,29.0,49,0.00,,BKN150,0.00,185.00,VWS V14.01,2013-01-10 17:20:00,
2013-01-10 10:25:00,43.9,26.0,29.56,South,181,16.0,30.0,49,0.00,,BKN150,0.00,199.00,VWS V14.01,2013-01-10 17:25:00,
2013-01-10 10:30:00,44.1,25.7,29.56,South,169,17.0,33.0,48,0.00,,BKN150,0.00,223.00,VWS V14.01,2013-01-10 17:30:00,
2013-01-10 10:35:00,44.3,25.9,29.55,SSW,192,24.0,33.0,48,0.00,,BKN150,0.00,190.00,VWS V14.01,2013-01-10 17:35:00,
2013-01-10 10:40:00,44.3,25.9,29.55,South,189,25.0,36.0,48,0.00,,BKN150,0.00,179.00,VWS V14.01,2013-01-10 17:40:00,
2013-01-10 10:45:00,44.2,25.8,29.54,SSW,195,22.0,36.0,48,0.00,,BKN150,0.00,174.00,VWS V14.01,2013-01-10 17:45:00,
2013-01-10 10:50:00,44.3,25.4,29.53,SSE,161,21.0,36.0,47,0.00,,BKN150,0.00,163.00,VWS V14.01,2013-01-10 17:50:00,
2013-01-10 10:55:00,44.6,25.6,29.52,South,182,26.0,36.0,47,0.00,,BKN150,0.00,163.00,VWS V14.01,2013-01-10 17:55:00,
2013-01-10 11:00:00,44.7,25.7,29.52,SSE,165,18.0,36.0,47,0.00,,BKN150,0.00,172.00,VWS V14.01,2013-01-10 18:00:00,
2013-01-10 11:05:00,44.6,25.6,29.53,SSW,192,30.0,34.0,47,0.00,,BKN150,0.00,169.00,VWS V14.01,2013-01-10 18:05:00,
2013-01-10 11:10:00,44.8,25.8,29.53,SSE,166,21.0,35.0,47,0.00,,BKN150,0.00,165.00,VWS V14.01,2013-01-10 18:10:00,
2013-01-10 11:15:00,44.9,25.4,29.53,South,178,23.0,35.0,46,0.00,,BKN150,0.00,169.00,VWS V14.01,2013-01-10 18:15:00,
2013-01-10 11:20:00,45.0,25.5,29.53,SSW,206,17.0,35.0,46,0.00,,BKN150,0.00,169.00,VWS V14.01,2013-01-10 18:20:00,
2013-01-10 11:25:00,44.9,25.4,29.52,South,187,36.0,40.0,46,0.00,,BKN150,0.00,169.00,VWS V14.01,2013-01-10 18:25:00,
2013-01-10 11:30:00,44.8,24.8,29.52,South,183,24.0,40.0,45,0.00,,BKN150,0.00,174.00,VWS V14.01,2013-01-10 18:30:00,
2013-01-10 11:35:00,44.8,24.8,29.51,SSW,198,20.0,33.0,45,0.00,,BKN150,0.00,172.00,VWS V14.01,2013-01-10 18:35:00,
2013-01-10 11:40:00,44.9,24.9,29.51,SSW,201,20.0,33.0,45,0.00,,BKN150,0.00,169.00,VWS V14.01,2013-01-10 18:40:00,
2013-01-10 11:45:00,45.0,25.0,29.50,South,186,35.0,35.0,45,0.00,,BKN150,0.00,171.00,VWS V14.01,2013-01-10 18:45:00,
2013-01-10 11:50:00,45.1,25.0,29.50,SSW,195,29.0,35.0,45,0.00,,BKN150,0.00,171.00,VWS V14.01,2013-01-10 18:50:00,
2013-01-10 11:55:00,45.2,25.1,29.50,SSW,200,16.0,35.0,45,0.00,,BKN150,0.00,174.00,VWS V14.01,2013-01-10 18:55:00,
2013-01-10 12:00:00,45.3,25.2,29.50,SSW,196,20.0,35.0,45,0.00,,BKN170,0.00,176.00,VWS V14.01,2013-01-10 19:00:00,
2013-01-10 12:05:00,45.5,25.4,29.49,SSE,156,24.0,38.0,45,0.00,,BKN170,0.00,176.00,VWS V14.01,2013-01-10 19:05:00,
2013-01-10 12:10:00,45.6,25.5,29.48,SSE,164,24.0,38.0,45,0.00,,BKN170,0.00,167.00,VWS V14.01,2013-01-10 19:10:00,
2013-01-10 12:15:00,45.8,25.7,29.49,South,181,14.0,38.0,45,0.00,,BKN170,0.00,162.00,VWS V14.01,2013-01-10 19:15:00,
2013-01-10 12:20:00,46.0,25.3,29.48,SSE,164,21.0,38.0,44,0.00,,BKN170,0.00,158.00,VWS V14.01,2013-01-10 19:20:00,
2013-01-10 12:25:00,46.1,25.4,29.48,SSW,192,25.0,38.0,44,0.00,,BKN170,0.00,156.00,VWS V14.01,2013-01-10 19:25:00,
2013-01-10 12:30:00,46.3,25.6,29.47,SSW,198,24.0,24.0,44,0.00,,BKN170,0.00,156.00,VWS V14.01,2013-01-10 19:30:00,
2013-01-10 12:35:00,46.4,25.7,29.47,SSW,207,19.0,31.0,44,0.00,,BKN170,0.00,158.00,VWS V14.01,2013-01-10 19:35:00,
2013-01-10 12:40:00,46.6,25.9,29.47,SSW,200,21.0,33.0,44,0.00,,BKN170,0.00,156.00,VWS V14.01,2013-01-10 19:40:00,
2013-01-10 12:45:00,46.7,26.0,29.47,SSW,196,19.0,33.0,44,0.00,,BKN170,0.00,153.00,VWS V14.01,2013-01-10 19:45:00,
2013-01-10 12:50:00,47.0,26.2,29.47,South,189,14.0,33.0,44,0.00,,BKN170,0.00,141.00,VWS V14.01,2013-01-10 19:50:00,
2013-01-10 12:55:00,47.3,26.0,29.47,South,190,23.0,33.0,43,0.00,,BKN170,0.00,132.00,VWS V14.01,2013-01-10 19:55:00,
2013-01-10 13:00:00,47.4,26.0,29.46,South,187,20.0,20.0,43,0.00,,OVC190,0.00,125.00,VWS V14.01,2013-01-10 20:00:00,
2013-01-10 13:05:00,47.5,26.7,29.46,SSW,195,22.0,25.0,44,0.00,,OVC190,0.00,121.00,VWS V14.01,2013-01-10 20:05:00,
2013-01-10 13:10:00,47.5,26.7,29.46,South,175,17.0,29.0,44,0.00,,OVC190,0.00,116.00,VWS V14.01,2013-01-10 20:10:00,
2013-01-10 13:16:00,47.7,26.9,29.46,SSW,204,15.0,29.0,44,0.00,,OVC190,0.00,111.00,VWS V14.01,2013-01-10 20:16:00,
2013-01-10 13:21:00,48.0,26.6,29.46,SSW,195,14.0,29.0,43,0.00,,OVC190,0.00,102.00,VWS V14.01,2013-01-10 20:21:00,
2013-01-10 13:26:00,48.1,26.7,29.45,SSW,201,16.0,29.0,43,0.00,,OVC190,0.00,97.00,VWS V14.01,2013-01-10 20:26:00,
2013-01-10 13:30:00,48.2,26.8,29.46,SW,220,13.0,29.0,43,0.00,,OVC075,0.00,91.00,VWS V14.01,2013-01-10 20:30:00,
2013-01-10 13:31:00,48.3,26.3,29.46,SSW,203,13.0,17.0,42,0.00,,OVC190,0.00,91.00,VWS V14.01,2013-01-10 20:31:00,
2013-01-10 13:36:00,48.6,26.6,29.45,SSW,208,17.0,23.0,42,0.00,,OVC190,0.00,88.00,VWS V14.01,2013-01-10 20:36:00,
2013-01-10 13:41:00,48.8,26.2,29.45,South,184,17.0,23.0,41,0.00,,OVC190,0.00,86.00,VWS V14.01,2013-01-10 20:41:00,
2013-01-10 13:46:00,48.7,26.1,29.45,SSW,194,16.0,26.0,41,0.00,,OVC190,0.00,81.00,VWS V14.01,2013-01-10 20:46:00,
2013-01-10 13:51:00,48.6,26.6,29.45,South,190,19.0,27.0,42,0.00,,OVC190,0.00,79.00,VWS V14.01,2013-01-10 20:51:00,
2013-01-10 13:56:00,48.6,26.0,29.45,SSE,167,20.0,28.0,41,0.00,,OVC190,0.00,77.00,VWS V14.01,2013-01-10 20:56:00,
2013-01-10 14:00:00,48.5,26.5,29.45,South,190,19.0,28.0,42,0.00,,OVC075,0.00,77.00,VWS V14.01,2013-01-10 21:00:00,
2013-01-10 14:01:00,48.4,26.4,29.45,SSE,151,23.0,24.0,42,0.00,,BKN200,0.00,79.00,VWS V14.01,2013-01-10 21:01:00,
2013-01-10 14:06:00,48.3,26.3,29.45,SSW,192,19.0,26.0,42,0.00,,BKN200,0.00,86.00,VWS V14.01,2013-01-10 21:06:00,
2013-01-10 14:11:00,48.2,26.2,29.45,SSW,197,18.0,26.0,42,0.00,,BKN200,0.00,95.00,VWS V14.01,2013-01-10 21:11:00,
2013-01-10 14:16:00,48.3,25.7,29.45,SSW,209,15.0,30.0,41,0.00,,BKN200,0.00,111.00,VWS V14.01,2013-01-10 21:16:00,
2013-01-10 14:21:00,48.5,25.9,29.44,South,188,18.0,30.0,41,0.00,,BKN200,0.00,120.00,VWS V14.01,2013-01-10 21:21:00,
2013-01-10 14:26:00,48.7,26.1,29.43,SSW,193,15.0,30.0,41,0.00,,BKN200,0.00,123.00,VWS V14.01,2013-01-10 21:26:00,
2013-01-10 14:30:00,48.9,26.2,29.43,South,186,19.0,30.0,41,0.00,,OVC075,0.00,125.00,VWS V14.01,2013-01-10 21:30:00,
2013-01-10 14:31:00,48.9,25.7,29.43,SSW,199,24.0,24.0,40,0.00,,BKN200,0.00,125.00,VWS V14.01,2013-01-10 21:31:00,
2013-01-10 14:36:00,49.4,25.5,29.43,SW,218,18.0,28.0,39,0.00,,BKN200,0.00,128.00,VWS V14.01,2013-01-10 21:36:00,
2013-01-10 14:41:00,49.8,25.9,29.43,SSW,199,14.0,28.0,39,0.00,,BKN200,0.00,144.00,VWS V14.01,2013-01-10 21:41:00,
2013-01-10 14:46:00,50.2,25.6,29.43,SSW,200,14.0,28.0,38,0.00,,BKN200,0.00,153.00,VWS V14.01,2013-01-10 21:46:00,
2013-01-10 14:51:00,50.5,25.9,29.42,South,189,22.0,28.0,38,0.00,,BKN200,0.00,148.00,VWS V14.01,2013-01-10 21:51:00,
2013-01-10 14:56:00,50.5,25.9,29.41,South,182,18.0,28.0,38,0.00,,BKN200,0.00,132.00,VWS V14.01,2013-01-10 21:56:00,
2013-01-10 15:00:00,50.6,26.0,29.42,South,180,18.0,28.0,38,0.00,,OVC075,0.00,127.00,VWS V14.01,2013-01-10 22:00:00,
2013-01-10 15:01:00,50.6,26.0,29.42,SW,223,15.0,22.0,38,0.00,,BKN190,0.00,125.00,VWS V14.01,2013-01-10 22:01:00,
2013-01-10 15:06:00,50.6,25.3,29.42,SW,223,19.0,25.0,37,0.00,,BKN190,0.00,130.00,VWS V14.01,2013-01-10 22:06:00,
2013-01-10 15:11:00,50.7,25.4,29.42,SSW,195,16.0,25.0,37,0.00,,BKN190,0.00,123.00,VWS V14.01,2013-01-10 22:11:00,
2013-01-10 15:16:00,50.5,25.9,29.42,SSE,161,13.0,25.0,38,0.00,,BKN190,0.00,86.00,VWS V14.01,2013-01-10 22:16:00,
2013-01-10 15:21:00,50.2,25.6,29.42,SSW,199,12.0,25.0,38,0.00,,BKN190,0.00,69.00,VWS V14.01,2013-01-10 22:21:00,
2013-01-10 15:26:00,49.8,25.2,29.43,SSW,194,13.0,25.0,38,0.00,,BKN190,0.00,72.00,VWS V14.01,2013-01-10 22:26:00,
2013-01-10 15:30:00,49.7,25.1,29.42,South,183,14.0,25.0,38,0.00,,OVC075,0.00,76.00,VWS V14.01,2013-01-10 22:30:00,
2013-01-10 15:31:00,49.6,25.7,29.43,SSW,193,19.0,20.0,39,0.00,,BKN190,0.00,74.00,VWS V14.01,2013-01-10 22:31:00,
2013-01-10 15:36:00,49.6,25.0,29.42,SSW,196,9.0,20.0,38,0.00,,BKN190,0.00,67.00,VWS V14.01,2013-01-10 22:36:00,
2013-01-10 15:41:00,49.5,25.6,29.43,South,186,13.0,21.0,39,0.00,,BKN190,0.00,60.00,VWS V14.01,2013-01-10 22:41:00,
2013-01-10 15:47:00,49.4,24.9,29.44,South,182,11.0,22.0,38,0.00,,BKN190,0.00,47.00,VWS V14.01,2013-01-10 22:47:00,
2013-01-10 15:52:00,49.5,25.0,29.44,SSW,198,9.0,22.0,38,0.00,,BKN190,0.00,39.00,VWS V14.01,2013-01-10 22:52:00,
2013-01-10 15:57:00,49.1,25.2,29.44,SSW,198,11.0,22.0,39,0.00,,BKN190,0.00,32.00,VWS V14.01,2013-01-10 22:57:00,
2013-01-10 16:00:00,49.0,24.5,29.44,SSW,197,8.0,22.0,38,0.00,,OVC075,0.00,26.00,VWS V14.01,2013-01-10 23:00:00,
2013-01-10 16:02:00,49.0,25.1,29.44,SSE,153,9.0,12.0,39,0.00,,BKN170,0.00,25.00,VWS V14.01,2013-01-10 23:02:00,
2013-01-10 16:07:00,48.9,25.0,29.44,South,181,10.0,15.0,39,0.00,,BKN170,0.00,16.00,VWS V14.01,2013-01-10 23:07:00,
2013-01-10 16:12:00,49.0,24.5,29.44,SSW,203,10.0,15.0,38,0.00,,BKN170,0.00,12.00,VWS V14.01,2013-01-10 23:12:00,
2013-01-10 16:17:00,49.1,24.6,29.44,SSW,206,10.0,17.0,38,0.00,,BKN170,0.00,9.00,VWS V14.01,2013-01-10 23:17:00,
2013-01-10 16:22:00,49.4,24.2,29.44,SSE,165,9.0,18.0,37,0.00,,BKN170,0.00,7.00,VWS V14.01,2013-01-10 23:22:00,
2013-01-10 16:27:00,48.9,24.4,29.44,SSE,156,16.0,18.0,38,0.00,,BKN170,0.00,5.00,VWS V14.01,2013-01-10 23:27:00,
2013-01-10 16:30:00,48.9,24.4,29.44,South,190,6.0,18.0,38,0.00,,OVC075,0.00,0.00,VWS V14.01,2013-01-10 23:30:00,
2013-01-10 16:32:00,48.7,24.2,29.44,SSW,199,9.0,15.0,38,0.00,,BKN170,0.00,0.00,VWS V14.01,2013-01-10 23:32:00,
2013-01-10 16:37:00,48.5,24.1,29.44,South,182,13.0,17.0,38,0.00,,BKN170,0.00,0.00,VWS V14.01,2013-01-10 23:37:00,
2013-01-10 16:42:00,48.2,23.8,29.44,South,184,14.0,17.0,38,0.00,,BKN170,0.00,0.00,VWS V14.01,2013-01-10 23:42:00,
2013-01-10 16:47:00,48.9,23.8,29.44,South,180,10.0,19.0,37,0.00,,BKN170,0.00,0.00,VWS V14.01,2013-01-10 23:47:00,
2013-01-10 16:52:00,48.4,24.0,29.44,South,182,13.0,19.0,38,0.00,,BKN170,0.00,0.00,VWS V14.01,2013-01-10 23:52:00,
2013-01-10 16:57:00,48.3,23.9,29.44,SSE,153,9.0,19.0,38,0.00,,BKN170,0.00,0.00,VWS V14.01,2013-01-10 23:57:00,
2013-01-10 17:00:00,48.3,23.9,29.44,SSW,203,9.0,19.0,38,0.00,,OVC075,0.00,0.00,VWS V14.01,2013-01-11 00:00:00,
2013-01-10 17:02:00,48.5,23.4,29.45,SSW,200,7.0,15.0,37,0.00,,SCT220,0.00,0.00,VWS V14.01,2013-01-11 00:02:00,
2013-01-10 17:07:00,48.8,23.7,29.45,SSW,192,13.0,15.0,37,0.00,,SCT220,0.00,0.00,VWS V14.01,2013-01-11 00:07:00,
2013-01-10 17:12:00,49.1,23.3,29.45,SSE,165,4.0,15.0,36,0.00,,SCT220,0.00,0.00,VWS V14.01,2013-01-11 00:12:00,
2013-01-10 17:17:00,48.8,23.7,29.45,NNE,26,2.0,15.0,37,0.00,,SCT220,0.00,0.00,VWS V14.01,2013-01-11 00:17:00,
2013-01-10 17:22:00,47.7,23.4,29.45,WNW,299,0.0,15.0,38,0.00,,SCT220,0.00,0.00,VWS V14.01,2013-01-11 00:22:00,
2013-01-10 17:27:00,47.1,22.8,29.45,WNW,299,0.0,15.0,38,0.00,,SCT220,0.00,0.00,VWS V14.01,2013-01-11 00:27:00,
2013-01-10 17:30:00,46.9,23.2,29.45,NW,321,0.0,15.0,39,0.00,,OVC075,0.00,0.00,VWS V14.01,2013-01-11 00:30:00,
2013-01-10 17:32:00,46.8,23.2,29.45,NW,321,3.0,3.0,39,0.00,,SCT220,0.00,0.00,VWS V14.01,2013-01-11 00:32:00,
2013-01-10 17:37:00,45.9,23.5,29.46,NW,311,0.0,3.0,41,0.00,,SCT220,0.00,0.00,VWS V14.01,2013-01-11 00:37:00,
2013-01-10 17:42:00,45.3,23.0,29.46,NW,311,0.0,3.0,41,0.00,,SCT220,0.00,0.00,VWS V14.01,2013-01-11 00:42:00,
2013-01-10 17:47:00,44.4,23.3,29.46,NW,311,0.0,3.0,43,0.00,,SCT220,0.00,0.00,VWS V14.01,2013-01-11 00:47:00,
2013-01-10 17:52:00,44.1,23.0,29.45,NW,311,1.0,3.0,43,0.00,,SCT220,0.00,0.00,VWS V14.01,2013-01-11 00:52:00,
2013-01-10 17:57:00,44.2,23.1,29.45,West,263,1.0,3.0,43,0.00,,SCT220,0.00,0.00,VWS V14.01,2013-01-11 00:57:00,
2013-01-10 18:00:00,44.1,23.0,29.45,West,261,2.0,4.0,43,0.00,,OVC075,0.00,0.00,VWS V14.01,2013-01-11 01:00:00,
2013-01-10 18:02:00,44.0,23.0,29.45,South,180,1.0,3.0,43,0.00,,BKN200,0.00,0.00,VWS V14.01,2013-01-11 01:02:00,
2013-01-10 18:07:00,43.4,23.0,29.45,NNW,327,2.0,4.0,44,0.00,,BKN200,0.00,0.00,VWS V14.01,2013-01-11 01:07:00,
2013-01-10 18:12:00,42.8,23.0,29.45,NNW,328,0.0,4.0,45,0.00,,BKN200,0.00,0.00,VWS V14.01,2013-01-11 01:12:00,
2013-01-10 18:17:00,42.3,23.0,29.46,NNW,328,0.0,4.0,46,0.00,,BKN200,0.00,0.00,VWS V14.01,2013-01-11 01:17:00,
2013-01-10 18:22:00,41.7,23.0,29.46,WNW,298,1.0,4.0,47,0.00,,BKN200,0.00,0.00,VWS V14.01,2013-01-11 01:22:00,
2013-01-10 18:27:00,41.3,23.1,29.46,NW,309,1.0,4.0,48,0.00,,BKN200,0.00,0.00,VWS V14.01,2013-01-11 01:27:00,
2013-01-10 18:30:00,41.0,23.3,29.46,WNW,284,1.0,4.0,49,0.00,,OVC075,0.00,0.00,VWS V14.01,2013-01-11 01:30:00,
2013-01-10 18:32:00,40.9,23.2,29.46,WNW,283,0.0,2.0,49,0.00,,BKN200,0.00,0.00,VWS V14.01,2013-01-11 01:32:00,
2013-01-10 18:37:00,40.8,23.1,29.45,SSW,199,0.0,4.0,49,0.00,,BKN200,0.00,0.00,VWS V14.01,2013-01-11 01:37:00,
2013-01-10 18:42:00,40.8,23.1,29.45,SW,215,3.0,4.0,49,0.00,,BKN200,0.00,0.00,VWS V14.01,2013-01-11 01:42:00,
2013-01-10 18:47:00,40.8,23.1,29.44,SW,219,2.0,4.0,49,0.00,,BKN200,0.00,0.00,VWS V14.01,2013-01-11 01:47:00,
2013-01-10 18:52:00,41.0,23.3,29.45,SW,219,1.0,4.0,49,0.00,,BKN200,0.00,0.00,VWS V14.01,2013-01-11 01:52:00,
2013-01-10 18:57:00,40.9,23.2,29.45,West,279,3.0,4.0,49,0.00,,BKN200,0.00,0.00,VWS V14.01,2013-01-11 01:57:00,
2013-01-10 19:00:00,40.6,23.4,29.45,WSW,258,0.0,4.0,50,0.00,,OVC075,0.00,0.00,VWS V14.01,2013-01-11 02:00:00,
2013-01-10 19:02:00,40.4,23.2,29.45,WSW,258,0.0,1.0,50,0.00,,OVC160,0.00,0.00,VWS V14.01,2013-01-11 02:02:00,
2013-01-10 19:07:00,40.0,23.4,29.44,WNW,287,2.0,3.0,51,0.00,,OVC160,0.00,0.00,VWS V14.01,2013-01-11 02:07:00,
2013-01-10 19:12:00,39.4,23.2,29.45,WNW,288,0.0,3.0,52,0.00,,OVC160,0.00,0.00,VWS V14.01,2013-01-11 02:12:00,
2013-01-10 19:17:00,39.0,23.3,29.46,West,280,0.0,3.0,53,0.00,,OVC160,0.00,0.00,VWS V14.01,2013-01-11 02:17:00,
2013-01-10 19:22:00,38.6,23.4,29.46,WSW,242,2.0,3.0,54,0.00,,OVC160,0.00,0.00,VWS V14.01,2013-01-11 02:22:00,
2013-01-10 19:27:00,38.3,23.1,29.46,WSW,242,3.0,5.0,54,0.00,,OVC160,0.00,0.00,VWS V14.01,2013-01-11 02:27:00,
2013-01-10 19:30:00,38.2,23.5,29.46,SSW,209,4.0,6.0,55,0.00,,OVC075,0.00,0.00,VWS V14.01,2013-01-11 02:30:00,
2013-01-10 19:32:00,38.3,23.1,29.46,SSW,207,6.0,7.0,54,0.00,,OVC160,0.00,0.00,VWS V14.01,2013-01-11 02:32:00,
2013-01-10 19:37:00,41.3,23.6,29.45,WSW,249,5.0,14.0,49,0.00,,OVC160,0.00,0.00,VWS V14.01,2013-01-11 02:37:00,
2013-01-10 19:42:00,41.7,23.5,29.45,WSW,256,1.0,14.0,48,0.00,,OVC160,0.00,0.00,VWS V14.01,2013-01-11 02:42:00,
2013-01-10 19:47:00,40.0,23.8,29.46,NW,304,6.0,14.0,52,0.00,,OVC160,0.00,0.00,VWS V14.01,2013-01-11 02:47:00,
2013-01-10 19:53:00,38.5,23.8,29.47,West,272,0.0,14.0,55,0.00,,OVC160,0.00,0.00,VWS V14.01,2013-01-11 02:53:00,
2013-01-10 19:58:00,38.0,23.7,29.47,SW,225,4.0,14.0,56,0.00,,OVC160,0.00,0.00,VWS V14.01,2013-01-11 02:58:00,
2013-01-10 20:00:00,38.0,23.3,29.47,SW,221,2.0,14.0,55,0.00,,OVC075,0.00,0.00,VWS V14.01,2013-01-11 03:00:00,
2013-01-10 20:03:00,38.4,23.2,29.46,SSW,207,3.0,5.0,54,0.00,,BKN190,0.00,0.00,VWS V14.01,2013-01-11 03:03:00,
2013-01-10 20:08:00,40.1,23.4,29.46,SSW,199,6.0,9.0,51,0.00,,BKN190,0.00,0.00,VWS V14.01,2013-01-11 03:08:00,
2013-01-10 20:13:00,41.2,23.5,29.45,NNW,333,3.0,9.0,49,0.00,,BKN190,0.00,0.00,VWS V14.01,2013-01-11 03:13:00,
2013-01-10 20:18:00,39.9,23.3,29.45,NW,310,4.0,9.0,51,0.00,,BKN190,0.00,0.00,VWS V14.01,2013-01-11 03:18:00,
2013-01-10 20:23:00,38.9,23.2,29.45,West,265,2.0,9.0,53,0.00,,BKN190,0.00,0.00,VWS V14.01,2013-01-11 03:23:00,
2013-01-10 20:28:00,38.6,23.4,29.44,WNW,298,3.0,9.0,54,0.00,,BKN190,0.00,0.00,VWS V14.01,2013-01-11 03:28:00,
2013-01-10 20:30:00,38.3,23.6,29.45,WNW,300,4.0,9.0,55,0.00,,OVC075,0.00,0.00,VWS V14.01,2013-01-11 03:30:00,
2013-01-10 20:33:00,38.1,23.4,29.45,WNW,302,0.0,5.0,55,0.00,,BKN190,0.00,0.00,VWS V14.01,2013-01-11 03:33:00,
2013-01-10 20:38:00,37.7,23.4,29.47,SSW,209,0.0,5.0,56,0.00,,BKN190,0.00,0.00,VWS V14.01,2013-01-11 03:38:00,
2013-01-10 20:43:00,37.7,23.4,29.46,WNW,303,3.0,5.0,56,0.00,,BKN190,0.00,0.00,VWS V14.01,2013-01-11 03:43:00,
2013-01-10 20:48:00,38.9,24.1,29.45,West,281,1.0,5.0,55,0.00,,BKN190,0.00,0.00,VWS V14.01,2013-01-11 03:48:00,
2013-01-10 20:53:00,39.5,24.2,29.45,NNW,330,2.0,6.0,54,0.00,,BKN190,0.00,0.00,VWS V14.01,2013-01-11 03:53:00,
2013-01-10 20:58:00,39.7,24.4,29.45,WNW,285,1.0,6.0,54,0.00,,BKN190,0.00,0.00,VWS V14.01,2013-01-11 03:58:00,
2013-01-10 21:00:00,39.7,24.9,29.45,NNW,348,1.0,6.0,55,0.00,,OVC075,0.00,0.00,VWS V14.01,2013-01-11 04:00:00,
2013-01-10 21:03:00,39.8,25.0,29.44,NNW,348,0.0,1.0,55,0.00,,SCT190,0.00,0.00,VWS V14.01,2013-01-11 04:03:00,
2013-01-10 21:08:00,40.1,25.7,29.44,North,350,1.0,2.0,56,0.00,,SCT190,0.00,0.00,VWS V14.01,2013-01-11 04:08:00,
2013-01-10 21:13:00,40.1,26.5,29.44,East,82,3.0,4.0,58,0.00,,SCT190,0.00,0.00,VWS V14.01,2013-01-11 04:13:00,
2013-01-10 21:18:00,39.8,26.2,29.45,East,97,4.0,6.0,58,0.00,,SCT190,0.00,0.00,VWS V14.01,2013-01-11 04:18:00,
2013-01-10 21:23:00,39.3,27.0,29.45,NNE,14,2.0,6.0,61,0.00,,SCT190,0.00,0.00,VWS V14.01,2013-01-11 04:23:00,
2013-01-10 21:28:00,39.1,27.2,29.45,South,187,1.0,6.0,62,0.00,,SCT190,0.00,0.00,VWS V14.01,2013-01-11 04:28:00,
2013-01-10 21:30:00,38.9,27.0,29.46,NE,34,9.0,9.0,62,0.00,,OVC075,0.00,0.00,VWS V14.01,2013-01-11 04:30:00,
2013-01-10 21:33:00,38.8,27.7,29.45,NNE,12,4.0,10.0,64,0.00,,SCT190,0.00,0.00,VWS V14.01,2013-01-11 04:33:00,
2013-01-10 21:38:00,38.5,27.8,29.46,NW,323,5.0,10.0,65,0.00,,SCT190,0.00,0.00,VWS V14.01,2013-01-11 04:38:00,
2013-01-10 21:43:00,38.3,28.0,29.47,NNW,341,1.0,10.0,66,0.00,,SCT190,0.00,0.00,VWS V14.01,2013-01-11 04:43:00,
2013-01-10 21:48:00,38.0,28.0,29.47,NNW,346,4.0,10.0,67,0.00,,SCT190,0.00,0.00,VWS V14.01,2013-01-11 04:48:00,
2013-01-10 21:53:00,37.7,28.1,29.47,NNE,20,3.0,10.0,68,0.00,,SCT190,0.00,0.00,VWS V14.01,2013-01-11 04:53:00,
2013-01-10 21:58:00,37.3,28.1,29.47,NE,51,1.0,10.0,69,0.00,,SCT190,0.00,0.00,VWS V14.01,2013-01-11 04:58:00,
2013-01-10 22:00:00,37.2,28.0,29.48,NE,51,2.0,10.0,69,0.00,,BKN200,0.00,0.00,VWS V14.01,2013-01-11 05:00:00,
2013-01-10 22:03:00,37.0,28.1,29.47,ENE,67,0.0,3.0,70,0.00,,BKN200,0.00,0.00,VWS V14.01,2013-01-11 05:03:00,
2013-01-10 22:08:00,36.8,28.0,29.47,NW,321,1.0,4.0,70,0.00,,BKN200,0.00,0.00,VWS V14.01,2013-01-11 05:08:00,
2013-01-10 22:13:00,36.6,28.1,29.47,NNE,20,3.0,5.0,71,0.00,,BKN200,0.00,0.00,VWS V14.01,2013-01-11 05:13:00,
2013-01-10 22:18:00,36.5,28.4,29.47,North,349,0.0,5.0,72,0.00,,BKN200,0.00,0.00,VWS V14.01,2013-01-11 05:18:00,
2013-01-10 22:23:00,36.5,28.4,29.48,NNW,336,0.0,5.0,72,0.00,,BKN200,0.00,0.00,VWS V14.01,2013-01-11 05:23:00,
2013-01-10 22:28:00,36.3,28.5,29.48,NW,315,2.0,5.0,73,0.00,,BKN200,0.00,0.00,VWS V14.01,2013-01-11 05:28:00,
2013-01-10 22:30:00,36.1,28.3,29.48,WNW,288,0.0,5.0,73,0.00,,OVC075,0.00,0.00,VWS V14.01,2013-01-11 05:30:00,
2013-01-10 22:33:00,35.9,28.1,29.48,NNW,330,7.0,7.0,73,0.00,,BKN200,0.00,0.00,VWS V14.01,2013-01-11 05:33:00,
2013-01-10 22:38:00,35.4,28.0,29.49,West,261,1.0,8.0,74,0.00,,BKN200,0.00,0.00,VWS V14.01,2013-01-11 05:38:00,
2013-01-10 22:43:00,35.0,28.2,29.49,WNW,299,2.0,9.0,76,0.00,,BKN200,0.00,0.00,VWS V14.01,2013-01-11 05:43:00,
2013-01-10 22:48:00,35.0,28.5,29.49,WNW,301,10.0,10.0,77,0.00,,BKN200,0.00,0.00,VWS V14.01,2013-01-11 05:48:00,
2013-01-10 22:53:00,35.0,28.9,29.49,NW,317,2.0,10.0,78,0.00,,BKN200,0.00,0.00,VWS V14.01,2013-01-11 05:53:00,
2013-01-10 22:58:00,35.0,29.2,29.49,NNW,332,4.0,10.0,79,0.00,,BKN200,0.00,0.00,VWS V14.01,2013-01-11 05:58:00,
2013-01-10 23:00:00,34.9,29.1,29.49,NNW,342,5.0,10.0,79,0.00,,OVC075,0.00,0.00,VWS V14.01,2013-01-11 06:00:00,
2013-01-10 23:03:00,34.8,29.0,29.49,NNW,329,5.0,10.0,79,0.00,,CLR,0.00,0.00,VWS V14.01,2013-01-11 06:03:00,
2013-01-10 23:08:00,34.6,29.1,29.49,North,9,3.0,10.0,80,0.00,,CLR,0.00,0.00,VWS V14.01,2013-01-11 06:08:00,
2013-01-10 23:13:00,34.4,28.9,29.50,NNW,329,3.0,10.0,80,0.00,,CLR,0.00,0.00,VWS V14.01,2013-01-11 06:13:00,
2013-01-10 23:18:00,34.3,29.1,29.51,NNW,344,6.0,10.0,81,0.00,,CLR,0.00,0.00,VWS V14.01,2013-01-11 06:18:00,
2013-01-10 23:23:00,34.0,29.1,29.50,NW,325,2.0,11.0,82,0.00,,CLR,0.00,0.00,VWS V14.01,2013-01-11 06:23:00,
2013-01-10 23:28:00,33.7,28.8,29.51,NNW,340,4.0,11.0,82,0.00,,CLR,0.00,0.00,VWS V14.01,2013-01-11 06:28:00,
2013-01-10 23:30:00,33.6,29.0,29.51,NNW,346,2.0,11.0,83,0.00,,OVC075,0.00,0.00,VWS V14.01,2013-01-11 06:30:00,
2013-01-10 23:33:00,33.4,28.8,29.51,NNW,346,6.0,12.0,83,0.00,,CLR,0.00,0.00,VWS V14.01,2013-01-11 06:33:00,
2013-01-10 23:38:00,33.0,28.7,29.51,North,349,3.0,12.0,84,0.00,,CLR,0.00,0.00,VWS V14.01,2013-01-11 06:38:00,
2013-01-10 23:43:00,32.7,28.7,29.51,NNW,331,3.0,12.0,85,0.00,,CLR,0.00,0.00,VWS V14.01,2013-01-11 06:43:00,
2013-01-10 23:48:00,32.3,28.3,29.52,SW,227,6.0,12.0,85,0.00,,CLR,0.00,0.00,VWS V14.01,2013-01-11 06:48:00,
2013-01-10 23:53:00,31.8,28.4,29.51,WNW,298,10.0,19.0,87,0.00,,CLR,0.00,0.00,VWS V14.01,2013-01-11 06:53:00,
2013-01-10 23:58:00,31.6,28.5,29.51,NE,41,1.0,19.0,88,0.00,,CLR,0.00,0.00,VWS V14.01,2013-01-11 06:58:00,